ΕΜΥ, Εθνική Μετεωρολογική Υπηρεσία - Δελτία Καιρού, Προγνώσεις

ΑΕΡΟΝΑΥΤΙΛΙΑ

GREEK AIRPORTS CODES

LGLR 280450Z 00000KT 9999 FEW008 SCT080 12/11 Q1019 RMK FEW180=

EUROPEAN AIRPORTS CODES

LFPO 280500Z AUTO 02008KT 9999 2300 R02/1100U NSC 13/07Q1031 NOSIG=